Time;durP1;ratioP1;P1;durP2;ratioP2;P2;SDS_P1;SDS_P2;PMS_P1;PMS_P2;Temp;Humidity;BMP_temperature;BMP_pressure;BME280_temperature;BME280_humidity;BME280_pressure;Samples;Min_cycle;Max_cycle;Signal;HPM_P1;HPM_P2
2021/07/24 00:02:13;;;;;;;0.10;0.10;;;;;;;13.73;88.47;101014.75;5033544;28;20490;-84
2021/07/24 00:04:46;;;;;;;0.10;0.10;;;;;;;13.73;89.45;101012.03;5033713;28;20064;-83
2021/07/24 00:07:22;;;;;;;0.10;0.10;;;;;;;13.65;89.36;101012.69;5040061;28;20053;-84
2021/07/24 00:09:59;;;;;;;0.10;0.10;;;;;;;13.61;89.36;101006.97;5033438;28;20060;-84
2021/07/24 00:12:51;;;;;;;0.10;0.10;;;;;;;13.56;89.37;100996.91;5034273;28;20050;-83
2021/07/24 00:15:24;;;;;;;0.10;0.10;;;;;;;13.67;88.74;101015.91;5047492;28;20814;-84
2021/07/24 00:18:09;;;;;;;0.10;0.10;;;;;;;13.60;88.80;101010.81;5034549;28;20056;-84
2021/07/24 00:20:42;;;;;;;0.10;0.10;;;;;;;13.52;90.00;101006.81;5043202;28;20394;-83
2021/07/24 00:23:16;;;;;;;0.20;0.20;;;;;;;13.39;90.57;101002.03;5040105;28;20557;-85
2021/07/24 00:25:50;;;;;;;0.10;0.10;;;;;;;13.47;90.70;101011.53;5038006;28;20664;-84
2021/07/24 00:28:23;;;;;;;0.20;0.20;;;;;;;13.41;90.27;101005.31;5050362;28;20065;-83
2021/07/24 00:30:56;;;;;;;0.20;0.10;;;;;;;13.26;91.01;100987.13;5050075;28;20053;-84
2021/07/24 00:33:32;;;;;;;0.13;0.13;;;;;;;13.19;90.24;100965.59;5033510;28;20053;-83
2021/07/24 00:36:05;;;;;;;0.10;0.10;;;;;;;13.42;90.11;101004.19;5033592;28;20053;-84
2021/07/24 00:38:41;;;;;;;0.20;0.20;;;;;;;13.37;90.59;101007.78;5044043;28;20044;-83
2021/07/24 00:41:16;;;;;;;0.20;0.20;;;;;;;13.31;90.71;101002.63;5041155;28;20061;-82
2021/07/24 00:43:50;;;;;;;0.10;0.10;;;;;;;13.34;90.90;101004.78;5043203;28;20045;-83
2021/07/24 00:46:26;;;;;;;0.13;0.13;;;;;;;13.31;91.01;101002.63;5040852;28;20049;-83
2021/07/24 00:49:02;;;;;;;0.10;0.10;;;;;;;13.23;91.79;100996.72;5039403;28;20049;-83
2021/07/24 00:51:48;;;;;;;0.15;0.15;;;;;;;13.21;92.10;100993.44;5034474;28;20038;-83
2021/07/24 00:54:17;;;;;;;0.20;0.20;;;;;;;13.20;90.93;100996.47;5051266;28;20068;-84
2021/07/24 00:56:46;;;;;;;0.10;0.10;;;;;;;13.20;91.48;100991.84;5050295;28;20048;-83
2021/07/24 00:59:19;;;;;;;0.20;0.20;;;;;;;13.14;91.47;100979.31;5045277;28;20045;-83
2021/07/24 01:01:52;;;;;;;0.20;0.20;;;;;;;13.15;92.41;100985.59;5040003;28;20050;-83
2021/07/24 01:04:26;;;;;;;0.20;0.20;;;;;;;13.07;92.39;100990.59;5033902;28;20053;-83
2021/07/24 01:07:03;;;;;;;0.10;0.10;;;;;;;13.07;92.22;100990.59;5032806;28;20053;-83
2021/07/24 01:09:38;;;;;;;0.10;0.10;;;;;;;13.09;91.98;100987.56;5048101;28;20057;-83
2021/07/24 01:12:08;;;;;;;0.10;0.10;;;;;;;13.04;91.90;100976.69;5034292;28;20045;-83
2021/07/24 01:14:42;;;;;;;0.10;0.10;;;;;;;13.12;91.27;100988.91;5040988;28;20045;-83
2021/07/24 01:17:16;;;;;;;0.13;0.13;;;;;;;12.99;92.26;100976.75;5049414;28;20422;-82
2021/07/24 01:19:49;;;;;;;0.10;0.10;;;;;;;13.05;92.08;100994.69;5048610;28;20072;-83
2021/07/24 01:22:19;;;;;;;0.10;0.10;;;;;;;12.97;91.74;100979.78;5034444;28;20054;-83
2021/07/24 01:24:52;;;;;;;0.13;0.13;;;;;;;13.00;92.27;100992.03;5045069;28;20393;-82
2021/07/24 01:27:26;;;;;;;0.10;0.10;;;;;;;13.00;92.24;100990.13;5047760;28;20792;-83
2021/07/24 01:30:06;;;;;;;0.10;0.10;;;;;;;12.92;92.34;100993.47;5041975;28;20045;-82
2021/07/24 01:32:37;;;;;;;0.15;0.15;;;;;;;12.90;93.51;100988.28;5049365;28;20063;-83
2021/07/24 01:35:06;;;;;;;0.10;0.10;;;;;;;12.92;94.09;100990.75;5052277;28;20052;-82
2021/07/24 01:37:37;;;;;;;0.15;0.15;;;;;;;12.95;92.78;100987.41;5043030;28;20050;-83
2021/07/24 01:40:12;;;;;;;0.10;0.10;;;;;;;12.87;93.40;100985.31;5036206;28;20042;-83
2021/07/24 01:42:41;;;;;;;0.17;0.17;;;;;;;12.84;93.33;100972.25;5038608;28;20050;-82
2021/07/24 01:45:11;;;;;;;0.10;0.10;;;;;;;12.92;92.69;100993.47;5045829;28;20878;-82
2021/07/24 01:47:39;;;;;;;0.10;0.10;;;;;;;12.75;94.24;100975.59;5034947;28;20057;-83
2021/07/24 01:53:08;;;;;;;0.10;0.10;;;;;;;12.80;91.73;100991.13;5031586;28;20045;-83
2021/07/24 01:55:40;;;;;;;0.20;0.13;;;;;;;12.78;91.95;100989.78;5031891;28;20057;-82
2021/07/24 01:58:17;;;;;;;0.20;0.20;;;;;;;12.75;91.29;100983.78;5040914;28;20049;-83
2021/07/24 02:01:05;;;;;;;0.13;0.13;;;;;;;12.74;92.17;100982.16;5035998;28;20072;-83
2021/07/24 02:03:39;;;;;;;0.10;0.10;;;;;;;12.79;93.45;100972.28;5041239;28;21018;-83
2021/07/24 02:06:28;;;;;;;0.10;0.10;;;;;;;12.74;92.79;100971.22;5033435;28;20056;-83
2021/07/24 02:09:13;;;;;;;0.10;0.10;;;;;;;12.74;92.23;100964.97;5035050;28;20520;-83
2021/07/24 02:11:52;;;;;;;0.10;0.10;;;;;;;12.75;92.73;100970.13;5041152;28;20045;-83
2021/07/24 02:14:34;;;;;;;0.20;0.20;;;;;;;12.78;92.96;100973.41;5037589;28;20417;-83
2021/07/24 02:17:16;;;;;;;0.17;0.17;;;;;;;12.79;92.81;100964.09;5031880;28;20053;-83
2021/07/24 02:19:56;;;;;;;0.20;0.20;;;;;;;12.81;92.85;100967.38;5039622;28;20057;-83
2021/07/24 02:22:24;;;;;;;0.57;0.30;;;;;;;12.69;93.22;100960.38;5037703;28;20049;-82
2021/07/24 02:25:00;;;;;;;0.17;0.17;;;;;;;12.67;92.39;100969.94;5047076;28;20489;-83
2021/07/24 02:27:35;;;;;;;0.10;0.10;;;;;;;12.63;92.30;100960.69;5057443;28;20053;-82
2021/07/24 02:30:41;;;;;;;0.17;0.17;;;;;;;12.63;93.30;100963.44;5031565;28;20057;-82
2021/07/24 02:33:14;;;;;;;0.15;0.15;;;;;;;12.64;92.32;100954.16;5038161;28;20045;-82
2021/07/24 02:35:49;;;;;;;0.10;0.10;;;;;;;12.44;92.23;100936.81;5031878;28;20049;-82
2021/07/24 02:38:33;;;;;;;0.10;0.10;;;;;;;12.55;93.99;100937.56;5044536;28;20053;-82
2021/07/24 02:41:07;;;;;;;0.10;0.10;;;;;;;12.57;92.70;100944.34;5036378;28;20045;-84
2021/07/24 02:43:37;;;;;;;0.10;0.10;;;;;;;12.56;94.87;100926.34;5030963;28;20067;-83
2021/07/24 02:46:05;;;;;;;0.17;0.17;;;;;;;12.67;95.35;100934.44;5031237;28;20038;-83
2021/07/24 02:48:34;;;;;;;0.20;0.20;;;;;;;12.67;94.54;100932.53;5039199;28;20056;-83
2021/07/24 02:51:21;;;;;;;0.10;0.10;;;;;;;12.54;94.56;100914.91;5040714;28;20049;-84
2021/07/24 02:53:51;;;;;;;0.10;0.10;;;;;;;12.57;94.52;100917.06;5061894;28;20053;-83
2021/07/24 02:56:25;;;;;;;0.10;0.10;;;;;;;12.54;94.67;100917.63;5041269;28;20064;-82
2021/07/24 02:58:59;;;;;;;0.15;0.15;;;;;;;12.55;94.49;100912.97;5030804;28;20049;-83
2021/07/24 03:01:31;;;;;;;0.20;0.20;;;;;;;12.39;94.80;100895.94;5035874;28;20053;-82
2021/07/24 03:04:05;;;;;;;0.10;0.10;;;;;;;12.44;95.41;100911.44;5045885;28;20490;-83
2021/07/24 03:06:38;;;;;;;0.20;0.20;;;;;;;12.40;94.92;100905.75;5037407;28;20052;-82
2021/07/24 03:09:11;;;;;;;0.20;0.20;;;;;;;12.30;95.83;100912.09;5040221;28;20054;-83
2021/07/24 03:11:46;;;;;;;0.10;0.10;;;;;;;12.05;95.82;100875.75;5038899;28;20060;-82
2021/07/24 03:14:14;;;;;;;0.10;0.10;;;;;;;12.27;95.80;100906.41;5039332;28;20045;-83
2021/07/24 03:16:47;;;;;;;0.10;0.10;;;;;;;12.24;95.96;100897.69;5035426;28;20057;-83
2021/07/24 03:19:22;;;;;;;0.10;0.10;;;;;;;12.28;94.79;100897.09;5032343;28;20049;-83
2021/07/24 03:21:55;;;;;;;0.20;0.20;;;;;;;12.28;95.31;100887.03;5030474;28;20041;-83
2021/07/24 03:24:23;;;;;;;0.10;0.10;;;;;;;12.34;95.34;100890.53;5045627;28;20052;-83
2021/07/24 03:26:58;;;;;;;0.13;0.13;;;;;;;12.36;95.25;100888.31;5039341;28;20049;-83
2021/07/24 03:29:35;;;;;;;0.15;0.15;;;;;;;12.34;95.00;100883.13;5046664;28;20057;-82
2021/07/24 03:32:08;;;;;;;0.10;0.10;;;;;;;12.35;95.08;100878.50;5046744;28;20266;-82
2021/07/24 03:34:42;;;;;;;0.20;0.20;;;;;;;12.24;95.35;100878.59;5030884;28;20053;-83
2021/07/24 03:37:21;;;;;;;0.20;0.20;;;;;;;12.26;94.92;100881.03;5031006;28;20498;-83
2021/07/24 03:39:54;;;;;;;0.20;0.20;;;;;;;12.31;94.46;100874.72;5038922;28;20056;-82
2021/07/24 03:42:29;;;;;;;0.20;0.20;;;;;;;12.31;94.16;100885.66;5040924;28;20037;-83
2021/07/24 03:45:02;;;;;;;0.20;0.20;;;;;;;12.28;94.34;100878.84;5040571;28;20524;-83
2021/07/24 03:47:35;;;;;;;0.15;0.15;;;;;;;12.23;94.93;100881.59;5045859;28;20044;-82
2021/07/24 03:50:09;;;;;;;0.10;0.10;;;;;;;12.14;95.49;100877.84;5050714;28;20075;-82
2021/07/24 03:52:42;;;;;;;0.10;0.10;;;;;;;12.13;95.29;100877.06;5052094;28;20041;-83
2021/07/24 03:55:11;;;;;;;0.10;0.10;;;;;;;12.12;95.64;100880.88;5042279;28;20046;-82
2021/07/24 03:57:46;;;;;;;0.20;0.20;;;;;;;12.02;95.81;100854.50;5053721;28;20494;-82
2021/07/24 04:00:14;;;;;;;0.10;0.10;;;;;;;12.13;95.94;100877.06;5054209;28;20386;-83
2021/07/24 04:02:46;;;;;;;0.15;0.15;;;;;;;12.12;96.08;100880.06;5034210;28;20045;-83
2021/07/24 04:05:14;;;;;;;0.20;0.20;;;;;;;12.17;95.87;100874.59;5034185;28;20497;-83
2021/07/24 04:07:48;;;;;;;0.10;0.10;;;;;;;12.15;95.79;100872.13;5038280;28;20047;-82
2021/07/24 04:10:16;;;;;;;0.20;0.20;;;;;;;12.12;96.07;100867.22;5036047;28;20049;-82
2021/07/24 04:13:16;;;;;;;0.10;0.10;;;;;;;12.08;96.53;100868.91;5033654;28;20053;-82
2021/07/24 04:15:49;;;;;;;0.13;0.13;;;;;;;12.13;96.08;100874.31;5035202;28;20056;-82
2021/07/24 04:18:25;;;;;;;0.10;0.10;;;;;;;12.19;95.85;100872.38;5034199;28;20068;-83
2021/07/24 04:20:59;;;;;;;0.20;0.20;;;;;;;12.14;96.53;100858.75;5050412;28;20042;-82
2021/07/24 04:23:27;;;;;;;0.20;0.20;;;;;;;12.23;96.48;100863.31;5046873;28;20041;-82
2021/07/24 04:26:20;;;;;;;0.20;0.20;;;;;;;12.31;96.09;100870.06;5047271;28;20056;-82
2021/07/24 04:28:54;;;;;;;0.20;0.20;;;;;;;12.32;95.56;100855.34;5041370;28;20437;-82
2021/07/24 04:31:28;;;;;;;0.20;0.20;;;;;;;12.46;95.64;100874.59;5047170;28;20386;-82
2021/07/24 04:34:01;;;;;;;0.20;0.20;;;;;;;12.40;96.78;100860.19;5053264;28;20060;-83
2021/07/24 04:36:29;;;;;;;0.20;0.20;;;;;;;12.50;95.83;100848.34;5045114;28;20447;-83
2021/07/24 04:39:02;;;;;;;0.20;0.20;;;;;;;12.64;96.13;100866.78;5039922;28;20079;-82
2021/07/24 04:41:32;;;;;;;0.17;0.17;;;;;;;12.67;96.25;100864.25;5034748;28;20056;-84
2021/07/24 04:44:06;;;;;;;0.20;0.20;;;;;;;12.75;96.19;100860.09;5035307;28;20045;-83
2021/07/24 04:46:40;;;;;;;0.20;0.20;;;;;;;12.83;95.66;100859.47;5032614;28;20060;-83
2021/07/24 04:49:13;;;;;;;0.10;0.10;;;;;;;13.05;95.24;100869.03;5041339;28;20387;-83
2021/07/24 04:51:46;;;;;;;0.10;0.10;;;;;;;13.01;94.62;100857.03;5032892;28;20061;-83
2021/07/24 04:54:19;;;;;;;0.13;0.13;;;;;;;13.16;94.84;100861.50;5033066;28;20060;-81
2021/07/24 04:56:53;;;;;;;0.20;0.20;;;;;;;13.25;94.91;100867.97;5050851;28;20049;-83
2021/07/24 04:59:27;;;;;;;0.10;0.10;;;;;;;13.00;95.65;100836.31;5051283;28;20060;-82
2021/07/24 05:01:56;;;;;;;0.20;0.20;;;;;;;13.20;94.92;100857.94;5036751;28;20049;-82
2021/07/24 05:04:24;;;;;;;0.10;0.10;;;;;;;13.31;94.35;100864.03;5032702;28;20390;-83
2021/07/24 05:06:52;;;;;;;0.20;0.20;;;;;;;13.35;94.31;100869.75;5033381;28;20048;-83
2021/07/24 05:09:25;;;;;;;0.13;0.13;;;;;;;13.33;94.84;100870.03;5034239;28;20052;-83
2021/07/24 05:11:59;;;;;;;0.20;0.20;;;;;;;13.55;94.91;100868.69;5048232;28;20056;-83
2021/07/24 05:15:00;;;;;;;0.20;0.20;;;;;;;14.06;92.57;100878.84;5046646;28;20049;-83
2021/07/24 05:17:33;;;;;;;0.30;0.30;;;;;;;15.37;86.96;100867.94;5052367;28;20417;-83
2021/07/24 05:20:05;;;;;;;0.20;0.20;;;;;;;16.55;81.97;100856.88;5043121;28;20524;-84
2021/07/24 05:22:39;;;;;;;0.20;0.20;;;;;;;17.64;78.80;100868.34;5036517;28;20052;-83
2021/07/24 05:25:08;;;;;;;0.20;0.20;;;;;;;18.40;75.40;100886.28;5046685;28;20053;-83
2021/07/24 05:27:42;;;;;;;0.20;0.20;;;;;;;19.32;71.39;100892.41;5037511;28;20041;-84
2021/07/24 05:30:14;;;;;;;0.20;0.20;;;;;;;19.86;72.68;100887.00;5046736;28;20060;-83
2021/07/24 05:32:48;;;;;;;0.20;0.20;;;;;;;20.33;69.37;100890.66;5032053;28;20049;-83
2021/07/24 05:35:21;;;;;;;0.20;0.20;;;;;;;20.40;67.02;100871.53;5050748;28;20053;-83
2021/07/24 05:37:51;;;;;;;0.20;0.20;;;;;;;21.11;67.65;100882.56;5049662;28;20049;-83
2021/07/24 05:40:25;;;;;;;0.10;0.10;;;;;;;21.52;63.98;100884.28;5041600;28;20056;-83
2021/07/24 05:43:00;;;;;;;0.10;0.10;;;;;;;21.14;67.17;100885.44;5035867;28;20041;-84
2021/07/24 05:45:35;;;;;;;0.10;0.10;;;;;;;20.63;68.92;100877.47;5033028;28;20060;-84
2021/07/24 05:48:09;;;;;;;0.10;0.10;;;;;;;19.81;69.96;100889.16;5037951;28;20048;-84
2021/07/24 05:50:41;;;;;;;0.10;0.10;;;;;;;19.43;73.38;100884.53;5038838;28;20041;-85
2021/07/24 05:53:09;;;;;;;0.10;0.10;;;;;;;18.97;74.36;100868.56;5032650;28;20413;-84
2021/07/24 05:55:38;;;;;;;0.10;0.10;;;;;;;18.58;75.16;100883.50;5044478;28;20053;-83
2021/07/24 05:58:11;;;;;;;0.10;0.10;;;;;;;18.35;76.54;100868.00;5040684;28;20060;-83
2021/07/24 06:00:41;;;;;;;0.10;0.10;;;;;;;18.21;75.87;100866.56;5049656;28;20049;-83
2021/07/24 06:03:16;;;;;;;0.10;0.10;;;;;;;18.02;77.27;100865.78;5047122;28;20045;-84
2021/07/24 06:05:52;;;;;;;0.10;0.10;;;;;;;17.68;78.92;100872.88;5044915;28;20054;-84
2021/07/24 06:08:26;;;;;;;0.10;0.10;;;;;;;17.76;77.97;100863.03;5043086;28;20708;-83
2021/07/24 06:11:06;;;;;;;0.10;0.10;;;;;;;17.66;79.17;100864.16;5035134;28;20045;-83
2021/07/24 06:13:39;;;;;;;0.10;0.10;;;;;;;17.75;79.84;100869.66;5041528;28;20045;-83
2021/07/24 06:16:14;;;;;;;0.10;0.10;;;;;;;17.48;80.77;100868.00;5038807;28;20065;-83
2021/07/24 06:18:49;;;;;;;0.10;0.10;;;;;;;17.44;80.25;100858.78;5036956;28;20406;-85
2021/07/24 06:21:22;;;;;;;0.10;0.10;;;;;;;17.62;80.14;100852.19;5042197;28;20057;-83
2021/07/24 06:24:24;;;;;;;0.10;0.10;;;;;;;17.44;80.19;100854.09;5044467;28;20045;-84
2021/07/24 06:26:57;;;;;;;0.10;0.10;;;;;;;17.65;81.57;100853.47;5034981;28;20409;-83
2021/07/24 06:29:31;;;;;;;0.20;0.20;;;;;;;17.58;79.53;100850.38;5045504;28;20417;-84
2021/07/24 06:32:06;;;;;;;0.10;0.10;;;;;;;17.97;78.54;100846.66;5036696;28;20045;-83
2021/07/24 06:34:34;;;;;;;0.10;0.10;;;;;;;18.00;77.65;100853.47;5043930;28;20057;-84
2021/07/24 06:37:03;;;;;;;0.13;0.13;;;;;;;17.79;78.42;100853.31;5031158;28;20061;-84
2021/07/24 06:39:31;;;;;;;0.20;0.20;;;;;;;17.98;78.01;100850.22;5045086;28;20049;-85
2021/07/24 06:42:06;;;;;;;0.10;0.10;;;;;;;18.28;79.99;100837.34;5050581;28;20057;-83
2021/07/24 06:45:05;;;;;;;0.10;0.10;;;;;;;17.83;78.22;100843.25;5038840;28;20072;-84
2021/07/24 06:47:39;;;;;;;0.10;0.10;;;;;;;18.19;77.96;100831.88;5042109;28;20053;-83
2021/07/24 06:50:09;;;;;;;0.10;0.10;;;;;;;18.13;79.24;100824.94;5045704;28;20054;-82
2021/07/24 06:52:38;;;;;;;0.20;0.20;;;;;;;18.06;77.69;100824.63;5037238;28;20505;-84
2021/07/24 06:55:44;;;;;;;0.10;0.10;;;;;;;18.28;75.43;100815.31;5039284;28;20045;-85
2021/07/24 06:58:18;;;;;;;0.10;0.10;;;;;;;18.07;77.14;100801.44;5033690;28;20076;-88
2021/07/24 07:00:54;;;;;;;0.10;0.10;;;;;;;18.15;77.26;100783.31;5041466;28;20054;-88
2021/07/24 07:03:46;;;;;;;0.20;0.20;;;;;;;18.20;78.33;100794.13;5043448;28;20042;-85
2021/07/24 07:07:20;;;;;;;0.10;0.10;;;;;;;18.60;75.26;100806.78;5047617;28;20049;-85
2021/07/24 07:09:58;;;;;;;0.20;0.20;;;;;;;18.58;75.87;100806.31;5043305;28;20040;-84
2021/07/24 07:12:32;;;;;;;0.10;0.10;;;;;;;18.58;76.48;100795.28;5052837;28;20053;-85
2021/07/24 07:15:01;;;;;;;0.10;0.10;;;;;;;18.81;74.42;100806.84;5056663;28;20068;-84
2021/07/24 07:17:35;;;;;;;0.10;0.10;;;;;;;18.78;74.07;100791.78;5041601;28;20520;-84
2021/07/24 07:20:07;;;;;;;0.10;0.10;;;;;;;18.96;73.19;100795.28;5038854;28;20064;-85
2021/07/24 07:22:58;;;;;;;0.10;0.10;;;;;;;19.07;74.69;100798.47;5038402;28;20048;-85
2021/07/24 07:25:34;;;;;;;0.10;0.10;;;;;;;19.41;74.15;100796.56;5045885;28;20053;-86
2021/07/24 07:28:09;;;;;;;0.10;0.10;;;;;;;19.31;75.77;100786.75;5051195;28;20068;-85
2021/07/24 07:30:37;;;;;;;0.10;0.10;;;;;;;19.20;72.91;100782.78;5040075;28;20046;-84
2021/07/24 07:33:10;;;;;;;0.10;0.10;;;;;;;19.23;72.13;100787.63;5040177;28;20049;-85
2021/07/24 07:35:55;;;;;;;0.10;0.10;;;;;;;19.24;72.22;100777.38;5035355;28;20038;-84
2021/07/24 07:38:28;;;;;;;0.10;0.10;;;;;;;19.28;71.83;100787.44;5048711;28;20678;-85
2021/07/24 07:40:56;;;;;;;0.10;0.10;;;;;;;19.18;71.63;100766.56;5053012;28;20075;-85
2021/07/24 07:43:25;;;;;;;0.10;0.10;;;;;;;19.34;72.91;100777.00;5040504;28;20045;-85
2021/07/24 07:45:53;;;;;;;0.10;0.10;;;;;;;19.38;71.64;100772.41;5048701;28;20056;-85
2021/07/24 07:48:26;;;;;;;0.10;0.10;;;;;;;19.49;73.21;100770.84;5042375;28;20058;-86
2021/07/24 07:51:01;;;;;;;0.10;0.10;;;;;;;19.50;69.56;100774.41;5036799;28;20068;-86
2021/07/24 07:53:53;;;;;;;0.10;0.10;;;;;;;19.50;70.85;100777.16;5041402;28;20061;-85
2021/07/24 07:56:26;;;;;;;0.10;0.10;;;;;;;19.46;71.18;100740.34;5039822;28;20053;-85
2021/07/24 07:58:54;;;;;;;0.10;0.10;;;;;;;19.63;70.70;100764.25;5042178;28;20044;-85
2021/07/24 08:01:23;;;;;;;0.10;0.10;;;;;;;20.04;70.66;100760.59;5044325;28;20072;-86
2021/07/24 08:03:52;;;;;;;0.10;0.10;;;;;;;19.96;68.76;100758.72;5044657;28;20041;-85
2021/07/24 08:06:26;;;;;;;0.10;0.10;;;;;;;19.75;69.13;100728.38;5039715;28;20060;-86
2021/07/24 08:08:55;;;;;;;0.10;0.10;;;;;;;20.07;68.81;100764.63;5044652;28;20048;-85
2021/07/24 08:11:29;;;;;;;0.10;0.10;;;;;;;20.25;69.99;100775.47;5032063;28;20041;-85
2021/07/24 08:14:29;;;;;;;0.10;0.10;;;;;;;20.28;67.99;100772.03;5034008;28;20059;-86
2021/07/24 08:16:57;;;;;;;0.10;0.10;;;;;;;20.20;69.93;100748.88;5046899;28;20064;-88
2021/07/24 08:19:53;;;;;;;0.10;0.10;;;;;;;20.46;69.09;100756.03;5045945;28;20056;-86
2021/07/24 08:22:28;;;;;;;0.10;0.10;;;;;;;20.25;68.12;100707.19;5042556;28;20060;-86
2021/07/24 08:25:01;;;;;;;0.10;0.10;;;;;;;20.17;66.59;100738.50;5037459;28;20096;-85
2021/07/24 08:27:34;;;;;;;0.10;0.10;;;;;;;20.04;66.03;100732.16;5049650;28;20048;-85
2021/07/24 08:30:29;;;;;;;0.10;0.10;;;;;;;20.21;69.28;100751.28;5041137;28;20053;-85
2021/07/24 08:33:03;;;;;;;0.10;0.10;;;;;;;20.61;66.74;100733.22;5048500;28;20060;-86
2021/07/24 08:35:32;;;;;;;0.10;0.10;;;;;;;21.01;64.76;100737.22;5042419;28;20103;-86
2021/07/24 08:38:05;;;;;;;0.10;0.10;;;;;;;20.89;60.96;100727.78;5045982;28;20048;-86
2021/07/24 08:40:45;;;;;;;0.10;0.10;;;;;;;21.00;64.04;100708.72;5050220;28;20413;-85
2021/07/24 08:43:18;;;;;;;0.10;0.10;;;;;;;21.16;60.65;100722.63;5041627;28;20053;-85
2021/07/24 08:45:56;;;;;;;0.10;0.10;;;;;;;21.00;60.84;100708.72;5032751;28;20064;-86
2021/07/24 08:49:11;;;;;;;0.10;0.10;;;;;;;20.75;61.23;100726.53;5044508;28;20052;-86
2021/07/24 08:51:46;;;;;;;0.13;0.13;;;;;;;20.67;64.17;100715.25;5038644;28;20049;-85
2021/07/24 08:54:21;;;;;;;0.10;0.10;;;;;;;20.94;58.70;100715.66;5048453;28;20072;-86
2021/07/24 08:57:00;;;;;;;0.10;0.10;;;;;;;20.77;58.07;100721.47;5041762;28;20599;-86
2021/07/24 08:59:29;;;;;;;0.15;0.15;;;;;;;20.62;63.32;100703.59;5034347;28;20049;-85
2021/07/24 09:01:57;;;;;;;0.10;0.10;;;;;;;20.95;64.09;100722.81;5036078;28;20056;-86
2021/07/24 09:04:27;;;;;;;0.10;0.10;;;;;;;21.17;61.57;100717.91;5042124;28;20060;-86
2021/07/24 09:06:59;;;;;;;0.10;0.10;;;;;;;21.09;61.35;100707.78;5039724;28;20069;-84
2021/07/24 09:09:42;;;;;;;0.10;0.10;;;;;;;21.30;63.24;100713.16;5042890;28;20050;-86
2021/07/24 09:12:38;;;;;;;0.10;0.10;;;;;;;21.47;62.43;100712.81;5045619;28;20041;-86
2021/07/24 09:15:18;;;;;;;0.10;0.10;;;;;;;21.52;60.57;100706.22;5032939;28;20053;-85
2021/07/24 09:17:52;;;;;;;0.30;0.10;;;;;;;21.63;62.68;100698.25;5049383;28;20042;-86
2021/07/24 09:20:50;;;;;;;0.10;0.10;;;;;;;21.64;56.42;100692.34;5042899;28;20425;-86
2021/07/24 09:23:36;;;;;;;0.10;0.10;;;;;;;21.64;60.07;100692.34;5054604;28;20053;-85
2021/07/24 09:26:06;;;;;;;0.32;0.20;;;;;;;21.73;58.15;100687.44;5049402;28;20044;-84
2021/07/24 09:28:39;;;;;;;0.10;0.10;;;;;;;21.72;58.28;100690.56;5046090;28;20827;-84
2021/07/24 09:31:22;;;;;;;0.10;0.10;;;;;;;21.32;57.19;100669.28;5037527;28;20055;-86
2021/07/24 09:33:54;;;;;;;0.10;0.10;;;;;;;21.38;56.98;100690.03;5027245;28;20068;-84
2021/07/24 09:36:31;;;;;;;0.10;0.10;;;;;;;21.51;57.92;100694.34;5038821;28;20424;-86
2021/07/24 09:39:16;;;;;;;0.10;0.10;;;;;;;21.70;55.46;100677.06;5038504;28;20056;-86
2021/07/24 09:41:53;;;;;;;0.10;0.10;;;;;;;21.53;55.65;100661.59;5030613;28;20060;-86
2021/07/24 09:44:29;;;;;;;0.10;0.10;;;;;;;22.02;57.33;100688.16;5030639;28;20071;-86
2021/07/24 09:47:05;;;;;;;0.10;0.10;;;;;;;22.08;58.32;100681.19;5025419;28;20056;-86
2021/07/24 09:49:39;;;;;;;0.10;0.10;;;;;;;22.22;57.41;100694.59;5032554;28;20053;-86
2021/07/24 09:52:16;;;;;;;0.10;0.10;;;;;;;22.42;54.07;100689.94;5030706;28;20457;-85
2021/07/24 09:54:50;;;;;;;0.10;0.10;;;;;;;22.20;54.77;100652.56;5034199;28;20594;-85
2021/07/24 09:57:36;;;;;;;0.10;0.10;;;;;;;22.41;51.77;100676.44;5035421;28;20037;-86
2021/07/24 10:00:20;;;;;;;0.10;0.10;;;;;;;22.44;54.06;100678.47;5032399;28;20725;-86
2021/07/24 10:03:02;;;;;;;0.10;0.10;;;;;;;22.64;50.68;100684.88;5027700;28;20591;-85
2021/07/24 10:05:41;;;;;;;0.10;0.10;;;;;;;22.58;52.58;100681.59;5041622;28;21511;-86
2021/07/24 10:08:15;;;;;;;0.10;0.10;;;;;;;22.70;55.42;100689.00;5031553;28;20049;-87
2021/07/24 10:10:51;;;;;;;0.10;0.10;;;;;;;22.79;53.65;100686.00;5030953;28;20061;-85
2021/07/24 10:13:21;;;;;;;0.10;0.10;;;;;;;22.76;52.59;100689.50;5032494;28;20053;-89
2021/07/24 10:15:50;;;;;;;0.10;0.10;;;;;;;22.78;51.98;100689.16;5031225;28;20061;-86
2021/07/24 10:18:24;;;;;;;0.10;0.10;;;;;;;22.97;54.60;100686.38;5031374;28;20048;-86
2021/07/24 10:20:58;;;;;;;0.10;0.10;;;;;;;23.02;53.16;100688.06;5034219;28;20057;-87
2021/07/24 10:23:28;;;;;;;0.10;0.10;;;;;;;23.10;53.92;100679.53;5031878;28;20057;-86
2021/07/24 10:26:11;;;;;;;0.10;0.10;;;;;;;23.30;56.94;100690.66;5033087;28;20049;-84
2021/07/24 10:28:54;;;;;;;0.10;0.10;;;;;;;23.23;54.42;100680.19;5032971;28;21201;-85
2021/07/24 10:31:31;;;;;;;0.10;0.10;;;;;;;23.30;54.24;100656.50;5028321;28;20053;-85
2021/07/24 10:34:02;;;;;;;0.10;0.10;;;;;;;23.54;51.68;100658.16;5041681;28;20048;-86
2021/07/24 10:36:39;;;;;;;0.10;0.10;;;;;;;23.59;50.06;100675.31;5028555;28;20100;-85
2021/07/24 10:39:34;;;;;;;0.10;0.10;;;;;;;23.60;56.14;100676.09;5029742;28;20061;-86
2021/07/24 10:42:13;;;;;;;0.10;0.10;;;;;;;23.74;55.90;100681.16;5028874;28;20063;-87
2021/07/24 10:44:49;;;;;;;0.20;0.20;;;;;;;23.72;51.07;100678.72;5029797;28;20053;-86
2021/07/24 10:47:18;;;;;;;0.10;0.10;;;;;;;23.83;54.11;100673.34;5038557;28;20526;-87
2021/07/24 10:50:04;;;;;;;0.10;0.10;;;;;;;24.12;55.62;100668.28;5029889;28;20057;-87
2021/07/24 10:53:12;;;;;;;0.10;0.10;;;;;;;23.87;51.12;100663.09;5036695;28;20053;-85
2021/07/24 10:55:50;;;;;;;0.10;0.10;;;;;;;24.00;51.46;100663.75;5028893;28;20072;-86
2021/07/24 10:58:26;;;;;;;0.10;0.10;;;;;;;24.18;51.37;100654.88;5027646;28;20065;-86
2021/07/24 11:01:06;;;;;;;0.15;0.15;;;;;;;24.13;53.83;100638.50;5031681;28;20060;-86
2021/07/24 11:03:42;;;;;;;0.10;0.10;;;;;;;24.40;50.84;100651.25;5034791;28;20061;-85
2021/07/24 11:06:25;;;;;;;0.10;0.10;;;;;;;24.56;52.48;100650.25;5031646;28;20045;-85
2021/07/24 11:09:31;;;;;;;0.17;0.10;;;;;;;24.45;49.26;100631.44;5032904;28;20069;-84
2021/07/24 11:12:07;;;;;;;0.10;0.10;;;;;;;24.86;48.22;100644.72;5026332;28;21047;-86
2021/07/24 11:14:58;;;;;;;0.00;0.00;;;;;;;24.72;50.64;100611.97;5035756;28;20061;-85
2021/07/24 11:17:29;;;;;;;0.10;0.10;;;;;;;24.83;49.66;100631.56;5032911;28;20054;-87
2021/07/24 11:20:30;;;;;;;0.10;0.10;;;;;;;24.87;46.55;100628.81;5038212;28;20064;-85
2021/07/24 11:23:07;;;;;;;0.10;0.10;;;;;;;24.91;49.46;100627.69;5032862;28;20062;-85
2021/07/24 11:25:41;;;;;;;0.10;0.10;;;;;;;24.78;47.51;100604.84;5032471;28;20056;-87
2021/07/24 11:28:20;;;;;;;0.10;0.10;;;;;;;24.87;46.84;100612.94;5031169;28;20049;-85
2021/07/24 11:31:03;;;;;;;0.10;0.10;;;;;;;24.96;46.75;100613.41;5032542;28;21529;-86
2021/07/24 11:33:33;;;;;;;0.10;0.10;;;;;;;25.02;48.10;100610.31;5034645;28;20056;-86
2021/07/24 11:36:04;;;;;;;0.10;0.10;;;;;;;24.38;46.19;100586.84;5036257;28;20049;-88
2021/07/24 11:38:34;;;;;;;0.10;0.10;;;;;;;24.29;48.83;100589.09;5049977;28;20057;-84
2021/07/24 11:41:12;;;;;;;0.10;0.10;;;;;;;24.47;48.87;100600.44;5034239;28;20687;-86
2021/07/24 11:43:40;;;;;;;0.10;0.10;;;;;;;24.34;48.20;100577.66;5033199;28;20059;-88
2021/07/24 11:46:30;;;;;;;0.10;0.10;;;;;;;25.04;50.70;100586.47;5034842;28;20069;-86
2021/07/24 11:49:06;;;;;;;0.10;0.10;;;;;;;25.45;51.64;100597.66;5038682;28;20386;-85
2021/07/24 11:51:44;;;;;;;0.10;0.10;;;;;;;25.51;46.98;100583.34;5034807;28;20156;-85
2021/07/24 11:54:33;;;;;;;0.10;0.10;;;;;;;25.58;49.18;100594.56;5033920;28;20065;-85
2021/07/24 11:57:07;;;;;;;0.10;0.10;;;;;;;25.84;49.09;100592.78;5035491;28;20049;-86
2021/07/24 11:59:41;;;;;;;0.10;0.10;;;;;;;25.95;46.12;100590.88;5035805;28;20072;-86
2021/07/24 12:02:19;;;;;;;0.10;0.10;;;;;;;25.61;46.93;100579.88;5034417;28;20065;-85
2021/07/24 12:04:54;;;;;;;0.10;0.10;;;;;;;25.66;48.14;100587.06;5033782;28;20053;-87
2021/07/24 12:07:27;;;;;;;0.10;0.10;;;;;;;25.76;48.99;100587.16;5046433;28;20048;-87
2021/07/24 12:10:25;;;;;;;0.10;0.10;;;;;;;25.90;47.64;100594.81;5032482;28;20061;-87